sensor_id;sensor_type;location;lat;lon;timestamp;pressure;altitude;pressure_sealevel;temperature;humidity
77450;BME280;66536;53.150;18.172;2023-04-19T00:00:04;102123.95;;;4.47;65.06
77450;BME280;66536;53.150;18.172;2023-04-19T00:02:54;102119.91;;;4.41;65.40
77450;BME280;66536;53.150;18.172;2023-04-19T00:05:21;102120.38;;;4.35;65.54
77450;BME280;66536;53.150;18.172;2023-04-19T00:07:49;102114.12;;;4.31;65.47
77450;BME280;66536;53.150;18.172;2023-04-19T00:10:16;102114.36;;;4.26;65.51
77450;BME280;66536;53.150;18.172;2023-04-19T00:12:45;102111.10;;;4.20;65.67
77450;BME280;66536;53.150;18.172;2023-04-19T00:15:12;102102.45;;;4.14;65.92
77450;BME280;66536;53.150;18.172;2023-04-19T00:17:38;102103.58;;;4.08;65.88
77450;BME280;66536;53.150;18.172;2023-04-19T00:20:04;102103.69;;;4.03;65.96
77450;BME280;66536;53.150;18.172;2023-04-19T00:22:31;102098.54;;;3.99;66.13
77450;BME280;66536;53.150;18.172;2023-04-19T00:24:57;102095.10;;;3.95;65.98
77450;BME280;66536;53.150;18.172;2023-04-19T00:27:23;102092.23;;;3.91;66.14
77450;BME280;66536;53.150;18.172;2023-04-19T00:29:50;102085.96;;;3.86;66.21
77450;BME280;66536;53.150;18.172;2023-04-19T00:32:17;102089.02;;;3.82;66.44
77450;BME280;66536;53.150;18.172;2023-04-19T00:34:43;102081.77;;;3.78;66.57
77450;BME280;66536;53.150;18.172;2023-04-19T00:37:09;102081.16;;;3.72;66.52
77450;BME280;66536;53.150;18.172;2023-04-19T00:39:36;102081.06;;;3.68;66.97
77450;BME280;66536;53.150;18.172;2023-04-19T00:42:05;102077.64;;;3.64;67.05
77450;BME280;66536;53.150;18.172;2023-04-19T00:44:31;102073.20;;;3.60;67.13
77450;BME280;66536;53.150;18.172;2023-04-19T00:46:58;102073.63;;;3.57;67.28
77450;BME280;66536;53.150;18.172;2023-04-19T00:49:26;102065.39;;;3.53;67.62
77450;BME280;66536;53.150;18.172;2023-04-19T00:51:52;102064.77;;;3.50;67.21
77450;BME280;66536;53.150;18.172;2023-04-19T00:54:19;102063.40;;;3.46;67.49
77450;BME280;66536;53.150;18.172;2023-04-19T00:56:51;102060.48;;;3.43;67.93
77450;BME280;66536;53.150;18.172;2023-04-19T00:59:18;102060.27;;;3.39;68.10
77450;BME280;66536;53.150;18.172;2023-04-19T01:01:44;102061.60;;;3.35;68.56
77450;BME280;66536;53.150;18.172;2023-04-19T01:04:10;102059.19;;;3.31;68.74
77450;BME280;66536;53.150;18.172;2023-04-19T01:06:39;102059.01;;;3.27;68.99
77450;BME280;66536;53.150;18.172;2023-04-19T01:09:06;102056.56;;;3.24;69.20
77450;BME280;66536;53.150;18.172;2023-04-19T01:11:32;102052.29;;;3.22;69.71
77450;BME280;66536;53.150;18.172;2023-04-19T01:13:59;102054.37;;;3.22;69.72
77450;BME280;66536;53.150;18.172;2023-04-19T01:16:29;102052.80;;;3.20;69.96
77450;BME280;66536;53.150;18.172;2023-04-19T01:18:55;102050.69;;;3.17;70.25
77450;BME280;66536;53.150;18.172;2023-04-19T01:21:21;102044.15;;;3.13;70.25
77450;BME280;66536;53.150;18.172;2023-04-19T01:23:48;102039.66;;;3.08;70.68
77450;BME280;66536;53.150;18.172;2023-04-19T01:26:15;102035.84;;;3.04;70.75
77450;BME280;66536;53.150;18.172;2023-04-19T01:28:42;102042.02;;;3.01;71.03
77450;BME280;66536;53.150;18.172;2023-04-19T01:31:08;102037.63;;;2.99;71.52
77450;BME280;66536;53.150;18.172;2023-04-19T01:33:37;102031.90;;;2.98;71.15
77450;BME280;66536;53.150;18.172;2023-04-19T01:36:03;102027.46;;;2.96;71.92
77450;BME280;66536;53.150;18.172;2023-04-19T01:38:30;102025.53;;;2.95;71.83
77450;BME280;66536;53.150;18.172;2023-04-19T01:40:56;102018.98;;;2.91;71.72
77450;BME280;66536;53.150;18.172;2023-04-19T01:43:24;102014.35;;;2.88;72.01
77450;BME280;66536;53.150;18.172;2023-04-19T01:45:50;102013.97;;;2.86;72.61
77450;BME280;66536;53.150;18.172;2023-04-19T01:48:18;102008.68;;;2.86;72.36
77450;BME280;66536;53.150;18.172;2023-04-19T01:50:44;102012.09;;;2.86;72.01
77450;BME280;66536;53.150;18.172;2023-04-19T01:53:10;102010.73;;;2.84;72.07
77450;BME280;66536;53.150;18.172;2023-04-19T01:55:36;102012.04;;;2.82;71.96
77450;BME280;66536;53.150;18.172;2023-04-19T01:58:02;102005.07;;;2.80;72.10
77450;BME280;66536;53.150;18.172;2023-04-19T02:00:28;102006.23;;;2.79;72.45
77450;BME280;66536;53.150;18.172;2023-04-19T02:02:54;101996.83;;;2.77;72.77
77450;BME280;66536;53.150;18.172;2023-04-19T02:05:22;101994.38;;;2.77;72.80
77450;BME280;66536;53.150;18.172;2023-04-19T02:07:50;101984.83;;;2.78;72.90
77450;BME280;66536;53.150;18.172;2023-04-19T02:10:16;101986.71;;;2.78;73.17
77450;BME280;66536;53.150;18.172;2023-04-19T02:12:48;101987.14;;;2.77;73.73
77450;BME280;66536;53.150;18.172;2023-04-19T02:15:15;101992.60;;;2.77;73.36
77450;BME280;66536;53.150;18.172;2023-04-19T02:17:41;101987.47;;;2.75;73.37
77450;BME280;66536;53.150;18.172;2023-04-19T02:20:08;101987.73;;;2.71;73.78
77450;BME280;66536;53.150;18.172;2023-04-19T02:22:34;101982.73;;;2.70;74.59
77450;BME280;66536;53.150;18.172;2023-04-19T02:25:00;101981.66;;;2.71;73.94
77450;BME280;66536;53.150;18.172;2023-04-19T02:27:34;101977.31;;;2.72;74.71
77450;BME280;66536;53.150;18.172;2023-04-19T02:30:24;101974.36;;;2.76;74.86
77450;BME280;66536;53.150;18.172;2023-04-19T02:38:46;101967.58;;;3.01;75.61
77450;BME280;66536;53.150;18.172;2023-04-19T02:41:21;101965.77;;;3.06;75.07
77450;BME280;66536;53.150;18.172;2023-04-19T02:43:47;101962.52;;;3.13;75.04
77450;BME280;66536;53.150;18.172;2023-04-19T02:46:13;101961.99;;;3.17;75.58
77450;BME280;66536;53.150;18.172;2023-04-19T02:48:39;101954.06;;;3.22;75.46
77450;BME280;66536;53.150;18.172;2023-04-19T02:51:05;101956.75;;;3.25;75.45
77450;BME280;66536;53.150;18.172;2023-04-19T02:53:32;101952.45;;;3.27;75.58
77450;BME280;66536;53.150;18.172;2023-04-19T02:56:00;101944.73;;;3.28;75.94
77450;BME280;66536;53.150;18.172;2023-04-19T02:58:31;101940.64;;;3.28;75.66
77450;BME280;66536;53.150;18.172;2023-04-19T03:01:03;101938.27;;;3.29;75.49
77450;BME280;66536;53.150;18.172;2023-04-19T03:03:29;101934.14;;;3.30;75.78
77450;BME280;66536;53.150;18.172;2023-04-19T03:05:56;101931.34;;;3.33;75.62
77450;BME280;66536;53.150;18.172;2023-04-19T03:08:24;101928.02;;;3.38;75.59
77450;BME280;66536;53.150;18.172;2023-04-19T03:10:50;101925.85;;;3.43;75.60
77450;BME280;66536;53.150;18.172;2023-04-19T03:13:16;101919.63;;;3.48;75.44
77450;BME280;66536;53.150;18.172;2023-04-19T03:15:43;101914.11;;;3.52;75.47
77450;BME280;66536;53.150;18.172;2023-04-19T03:18:09;101909.16;;;3.56;75.64
77450;BME280;66536;53.150;18.172;2023-04-19T03:20:37;101907.32;;;3.60;75.94
77450;BME280;66536;53.150;18.172;2023-04-19T03:23:04;101900.53;;;3.63;76.15
77450;BME280;66536;53.150;18.172;2023-04-19T03:25:34;101899.79;;;3.68;76.64
77450;BME280;66536;53.150;18.172;2023-04-19T03:28:12;101898.70;;;3.73;76.62
77450;BME280;66536;53.150;18.172;2023-04-19T03:31:00;101899.38;;;3.78;76.97
77450;BME280;66536;53.150;18.172;2023-04-19T03:33:27;101898.89;;;3.84;76.77
77450;BME280;66536;53.150;18.172;2023-04-19T03:35:54;101900.77;;;3.92;77.40
77450;BME280;66536;53.150;18.172;2023-04-19T03:38:21;101911.83;;;3.98;78.35
77450;BME280;66536;53.150;18.172;2023-04-19T03:40:50;101912.00;;;4.00;79.40
77450;BME280;66536;53.150;18.172;2023-04-19T03:43:16;101905.08;;;3.99;79.52
77450;BME280;66536;53.150;18.172;2023-04-19T03:45:43;101899.08;;;3.97;79.51
77450;BME280;66536;53.150;18.172;2023-04-19T03:48:09;101902.19;;;3.95;80.18
77450;BME280;66536;53.150;18.172;2023-04-19T03:50:38;101897.81;;;3.94;79.88
77450;BME280;66536;53.150;18.172;2023-04-19T03:53:04;101891.45;;;3.95;79.63
77450;BME280;66536;53.150;18.172;2023-04-19T03:55:30;101891.42;;;3.97;79.62
77450;BME280;66536;53.150;18.172;2023-04-19T03:57:57;101887.89;;;4.00;79.72
77450;BME280;66536;53.150;18.172;2023-04-19T04:00:32;101887.03;;;4.04;79.76
77450;BME280;66536;53.150;18.172;2023-04-19T04:03:00;101887.30;;;4.09;79.67
77450;BME280;66536;53.150;18.172;2023-04-19T04:05:27;101888.73;;;4.14;79.79
77450;BME280;66536;53.150;18.172;2023-04-19T04:07:55;101885.23;;;4.19;79.80
77450;BME280;66536;53.150;18.172;2023-04-19T04:10:22;101883.67;;;4.21;80.12
77450;BME280;66536;53.150;18.172;2023-04-19T04:12:48;101886.80;;;4.22;80.44
77450;BME280;66536;53.150;18.172;2023-04-19T04:15:19;101892.02;;;4.23;80.31
77450;BME280;66536;53.150;18.172;2023-04-19T04:17:49;101888.55;;;4.26;80.28
77450;BME280;66536;53.150;18.172;2023-04-19T04:20:19;101891.30;;;4.29;80.48
77450;BME280;66536;53.150;18.172;2023-04-19T04:22:45;101890.11;;;4.33;80.58
77450;BME280;66536;53.150;18.172;2023-04-19T04:25:14;101893.36;;;4.39;81.20
77450;BME280;66536;53.150;18.172;2023-04-19T04:27:41;101891.33;;;4.42;81.48
77450;BME280;66536;53.150;18.172;2023-04-19T04:30:11;101888.09;;;4.46;81.90
77450;BME280;66536;53.150;18.172;2023-04-19T04:32:40;101888.14;;;4.49;81.69
77450;BME280;66536;53.150;18.172;2023-04-19T04:35:07;101887.15;;;4.52;81.38
77450;BME280;66536;53.150;18.172;2023-04-19T04:37:40;101885.88;;;4.55;81.63
77450;BME280;66536;53.150;18.172;2023-04-19T04:40:07;101887.09;;;4.57;81.35
77450;BME280;66536;53.150;18.172;2023-04-19T04:42:33;101884.17;;;4.59;81.44
77450;BME280;66536;53.150;18.172;2023-04-19T04:45:00;101886.25;;;4.60;81.15
77450;BME280;66536;53.150;18.172;2023-04-19T04:47:31;101890.47;;;4.63;81.09
77450;BME280;66536;53.150;18.172;2023-04-19T04:49:59;101888.07;;;4.65;80.97
77450;BME280;66536;53.150;18.172;2023-04-19T04:52:25;101896.02;;;4.67;81.02
77450;BME280;66536;53.150;18.172;2023-04-19T04:54:58;101896.20;;;4.69;81.03
77450;BME280;66536;53.150;18.172;2023-04-19T04:57:29;101889.14;;;4.72;80.89
77450;BME280;66536;53.150;18.172;2023-04-19T05:00:06;101885.23;;;4.75;80.79
77450;BME280;66536;53.150;18.172;2023-04-19T05:02:37;101883.36;;;4.78;80.09
77450;BME280;66536;53.150;18.172;2023-04-19T05:05:05;101878.20;;;4.83;79.73
77450;BME280;66536;53.150;18.172;2023-04-19T05:07:32;101878.23;;;4.88;79.35
77450;BME280;66536;53.150;18.172;2023-04-19T05:09:59;101873.11;;;4.95;79.06
77450;BME280;66536;53.150;18.172;2023-04-19T05:12:28;101878.30;;;5.04;79.06
77450;BME280;66536;53.150;18.172;2023-04-19T05:14:55;101873.84;;;5.11;78.78
77450;BME280;66536;53.150;18.172;2023-04-19T05:17:24;101873.62;;;5.18;78.56
77450;BME280;66536;53.150;18.172;2023-04-19T05:19:50;101877.58;;;5.21;78.23
77450;BME280;66536;53.150;18.172;2023-04-19T05:22:16;101877.92;;;5.21;77.88
77450;BME280;66536;53.150;18.172;2023-04-19T05:24:43;101871.07;;;5.21;77.69
77450;BME280;66536;53.150;18.172;2023-04-19T05:27:10;101866.79;;;5.25;77.78
77450;BME280;66536;53.150;18.172;2023-04-19T05:29:36;101860.20;;;5.33;77.50
77450;BME280;66536;53.150;18.172;2023-04-19T05:32:03;101861.73;;;5.40;77.36
77450;BME280;66536;53.150;18.172;2023-04-19T05:34:33;101856.81;;;5.43;77.00
77450;BME280;66536;53.150;18.172;2023-04-19T05:37:02;101854.15;;;5.44;76.81
77450;BME280;66536;53.150;18.172;2023-04-19T05:39:30;101845.11;;;5.44;76.70
77450;BME280;66536;53.150;18.172;2023-04-19T05:41:57;101845.94;;;5.42;76.48
77450;BME280;66536;53.150;18.172;2023-04-19T05:44:23;101838.25;;;5.37;76.69
77450;BME280;66536;53.150;18.172;2023-04-19T05:46:50;101831.36;;;5.32;76.80
77450;BME280;66536;53.150;18.172;2023-04-19T05:49:24;101828.08;;;5.29;76.91
77450;BME280;66536;53.150;18.172;2023-04-19T05:52:00;101823.27;;;5.29;76.83
77450;BME280;66536;53.150;18.172;2023-04-19T05:54:34;101826.05;;;5.30;76.52
77450;BME280;66536;53.150;18.172;2023-04-19T05:57:01;101822.94;;;5.34;76.18
77450;BME280;66536;53.150;18.172;2023-04-19T05:59:28;101823.45;;;5.41;76.12
77450;BME280;66536;53.150;18.172;2023-04-19T06:01:55;101826.77;;;5.55;75.69
77450;BME280;66536;53.150;18.172;2023-04-19T06:04:23;101825.69;;;5.70;75.18
77450;BME280;66536;53.150;18.172;2023-04-19T06:06:49;101825.42;;;5.86;74.68
77450;BME280;66536;53.150;18.172;2023-04-19T06:09:15;101819.83;;;6.00;74.75
77450;BME280;66536;53.150;18.172;2023-04-19T06:11:43;101836.31;;;6.10;74.04
77450;BME280;66536;53.150;18.172;2023-04-19T06:14:10;101840.48;;;6.18;73.45
77450;BME280;66536;53.150;18.172;2023-04-19T06:16:44;101844.16;;;6.19;73.28
77450;BME280;66536;53.150;18.172;2023-04-19T06:19:12;101837.90;;;6.11;73.26
77450;BME280;66536;53.150;18.172;2023-04-19T06:21:43;101838.26;;;6.00;74.32
77450;BME280;66536;53.150;18.172;2023-04-19T06:24:09;101851.54;;;5.91;74.78
77450;BME280;66536;53.150;18.172;2023-04-19T06:26:38;101830.97;;;5.80;74.85
77450;BME280;66536;53.150;18.172;2023-04-19T06:29:05;101839.39;;;5.73;75.25
77450;BME280;66536;53.150;18.172;2023-04-19T06:31:32;101838.04;;;5.69;75.51
77450;BME280;66536;53.150;18.172;2023-04-19T06:33:58;101830.89;;;5.63;75.40
77450;BME280;66536;53.150;18.172;2023-04-19T06:36:24;101829.82;;;5.57;75.91
77450;BME280;66536;53.150;18.172;2023-04-19T06:38:51;101832.38;;;5.52;76.27
77450;BME280;66536;53.150;18.172;2023-04-19T06:41:17;101819.29;;;5.53;76.63
77450;BME280;66536;53.150;18.172;2023-04-19T06:43:45;101814.67;;;5.59;76.86
77450;BME280;66536;53.150;18.172;2023-04-19T06:46:11;101808.20;;;5.68;76.84
77450;BME280;66536;53.150;18.172;2023-04-19T06:48:39;101815.09;;;5.69;76.82
77450;BME280;66536;53.150;18.172;2023-04-19T06:51:07;101803.67;;;5.67;77.17
77450;BME280;66536;53.150;18.172;2023-04-19T06:53:34;101804.23;;;5.66;77.42
77450;BME280;66536;53.150;18.172;2023-04-19T06:56:01;101813.09;;;5.63;77.74
77450;BME280;66536;53.150;18.172;2023-04-19T06:58:29;101809.66;;;5.62;78.09
77450;BME280;66536;53.150;18.172;2023-04-19T07:00:58;101801.61;;;5.67;77.99
77450;BME280;66536;53.150;18.172;2023-04-19T07:03:27;101796.02;;;5.77;78.00
77450;BME280;66536;53.150;18.172;2023-04-19T07:05:54;101807.57;;;5.80;78.13
77450;BME280;66536;53.150;18.172;2023-04-19T07:08:22;101812.01;;;5.80;78.36
77450;BME280;66536;53.150;18.172;2023-04-19T07:10:52;101816.98;;;5.78;78.55
77450;BME280;66536;53.150;18.172;2023-04-19T07:13:19;101818.01;;;5.75;78.84
77450;BME280;66536;53.150;18.172;2023-04-19T07:15:46;101817.98;;;5.73;79.05
77450;BME280;66536;53.150;18.172;2023-04-19T07:18:11;101815.36;;;5.68;79.19
77450;BME280;66536;53.150;18.172;2023-04-19T07:20:41;101810.95;;;5.61;79.58
77450;BME280;66536;53.150;18.172;2023-04-19T07:23:10;101814.23;;;5.55;79.80
77450;BME280;66536;53.150;18.172;2023-04-19T07:25:36;101810.98;;;5.52;80.12
77450;BME280;66536;53.150;18.172;2023-04-19T07:28:02;101811.04;;;5.46;80.26
77450;BME280;66536;53.150;18.172;2023-04-19T07:30:28;101807.03;;;5.38;80.73
77450;BME280;66536;53.150;18.172;2023-04-19T07:32:54;101810.22;;;5.29;80.91
77450;BME280;66536;53.150;18.172;2023-04-19T07:35:20;101803.98;;;5.25;81.09
77450;BME280;66536;53.150;18.172;2023-04-19T07:37:46;101789.98;;;5.23;81.11
77450;BME280;66536;53.150;18.172;2023-04-19T07:40:14;101784.83;;;5.21;81.46
77450;BME280;66536;53.150;18.172;2023-04-19T07:42:41;101780.05;;;5.19;81.36
77450;BME280;66536;53.150;18.172;2023-04-19T07:45:08;101774.58;;;5.17;81.64
77450;BME280;66536;53.150;18.172;2023-04-19T07:47:34;101770.04;;;5.17;81.73
77450;BME280;66536;53.150;18.172;2023-04-19T07:50:00;101782.95;;;5.16;81.59
77450;BME280;66536;53.150;18.172;2023-04-19T07:52:26;101776.47;;;5.17;81.73
77450;BME280;66536;53.150;18.172;2023-04-19T07:54:53;101773.21;;;5.21;81.52
77450;BME280;66536;53.150;18.172;2023-04-19T07:57:19;101775.40;;;5.22;81.52
77450;BME280;66536;53.150;18.172;2023-04-19T07:59:45;101769.58;;;5.23;81.56
77450;BME280;66536;53.150;18.172;2023-04-19T08:02:11;101764.52;;;5.28;81.49
77450;BME280;66536;53.150;18.172;2023-04-19T08:04:37;101762.88;;;5.34;81.48
77450;BME280;66536;53.150;18.172;2023-04-19T08:07:04;101758.81;;;5.42;81.45
77450;BME280;66536;53.150;18.172;2023-04-19T08:09:32;101757.90;;;5.54;81.37
77450;BME280;66536;53.150;18.172;2023-04-19T08:11:59;101749.29;;;5.66;81.17
77450;BME280;66536;53.150;18.172;2023-04-19T08:14:27;101752.02;;;5.79;80.86
77450;BME280;66536;53.150;18.172;2023-04-19T08:16:53;101749.60;;;5.88;80.56
77450;BME280;66536;53.150;18.172;2023-04-19T08:19:18;101748.31;;;5.94;80.56
77450;BME280;66536;53.150;18.172;2023-04-19T08:21:45;101742.99;;;6.01;80.42
77450;BME280;66536;53.150;18.172;2023-04-19T08:24:12;101739.70;;;6.04;80.37
77450;BME280;66536;53.150;18.172;2023-04-19T08:26:39;101740.16;;;6.09;80.09
77450;BME280;66536;53.150;18.172;2023-04-19T08:29:05;101740.17;;;6.12;79.72
77450;BME280;66536;53.150;18.172;2023-04-19T08:31:32;101742.04;;;6.16;79.56
77450;BME280;66536;53.150;18.172;2023-04-19T08:33:58;101743.39;;;6.21;79.52
77450;BME280;66536;53.150;18.172;2023-04-19T08:36:25;101745.73;;;6.28;79.20
77450;BME280;66536;53.150;18.172;2023-04-19T08:38:54;101743.19;;;6.38;79.00
77450;BME280;66536;53.150;18.172;2023-04-19T08:41:20;101745.77;;;6.45;79.00
77450;BME280;66536;53.150;18.172;2023-04-19T08:43:50;101745.98;;;6.48;78.99
77450;BME280;66536;53.150;18.172;2023-04-19T08:46:17;101740.80;;;6.50;78.83
77450;BME280;66536;53.150;18.172;2023-04-19T08:48:44;101738.05;;;6.51;78.36
77450;BME280;66536;53.150;18.172;2023-04-19T08:51:11;101744.21;;;6.50;78.05
77450;BME280;66536;53.150;18.172;2023-04-19T08:53:38;101736.70;;;6.50;77.78
77450;BME280;66536;53.150;18.172;2023-04-19T08:56:06;101731.32;;;6.47;78.25
77450;BME280;66536;53.150;18.172;2023-04-19T08:58:33;101727.06;;;6.50;78.06
77450;BME280;66536;53.150;18.172;2023-04-19T09:00:58;101727.46;;;6.56;78.11
77450;BME280;66536;53.150;18.172;2023-04-19T09:03:25;101718.99;;;6.60;78.13
77450;BME280;66536;53.150;18.172;2023-04-19T09:05:52;101717.77;;;6.66;77.81
77450;BME280;66536;53.150;18.172;2023-04-19T09:08:27;101719.71;;;6.71;77.42
77450;BME280;66536;53.150;18.172;2023-04-19T09:10:57;101716.05;;;6.72;77.77
77450;BME280;66536;53.150;18.172;2023-04-19T09:13:24;101713.44;;;6.71;77.80
77450;BME280;66536;53.150;18.172;2023-04-19T09:15:50;101706.38;;;6.76;77.61
77450;BME280;66536;53.150;18.172;2023-04-19T09:18:18;101706.41;;;6.82;77.44
77450;BME280;66536;53.150;18.172;2023-04-19T09:20:45;101703.25;;;6.91;77.05
77450;BME280;66536;53.150;18.172;2023-04-19T09:23:14;101708.23;;;7.00;76.96
77450;BME280;66536;53.150;18.172;2023-04-19T09:25:56;101707.89;;;7.06;76.73
77450;BME280;66536;53.150;18.172;2023-04-19T09:28:23;101705.05;;;7.13;76.38
77450;BME280;66536;53.150;18.172;2023-04-19T09:30:49;101704.39;;;7.20;75.94
77450;BME280;66536;53.150;18.172;2023-04-19T09:33:34;101700.42;;;7.25;76.33
77450;BME280;66536;53.150;18.172;2023-04-19T09:36:01;101703.32;;;7.33;75.79
77450;BME280;66536;53.150;18.172;2023-04-19T09:38:28;101702.91;;;7.41;75.36
77450;BME280;66536;53.150;18.172;2023-04-19T09:41:04;101701.27;;;7.51;74.90
77450;BME280;66536;53.150;18.172;2023-04-19T09:43:33;101700.27;;;7.67;74.42
77450;BME280;66536;53.150;18.172;2023-04-19T09:45:59;101701.89;;;7.87;73.35
77450;BME280;66536;53.150;18.172;2023-04-19T09:48:25;101702.52;;;8.03;72.66
77450;BME280;66536;53.150;18.172;2023-04-19T09:50:57;101700.10;;;8.11;71.99
77450;BME280;66536;53.150;18.172;2023-04-19T09:53:25;101697.83;;;8.08;71.55
77450;BME280;66536;53.150;18.172;2023-04-19T09:55:52;101694.70;;;8.04;71.12
77450;BME280;66536;53.150;18.172;2023-04-19T09:58:19;101691.26;;;8.04;71.56
77450;BME280;66536;53.150;18.172;2023-04-19T10:00:47;101695.52;;;8.03;71.05
77450;BME280;66536;53.150;18.172;2023-04-19T10:03:15;101689.50;;;8.04;69.95
77450;BME280;66536;53.150;18.172;2023-04-19T10:05:42;101695.73;;;8.09;70.89
77450;BME280;66536;53.150;18.172;2023-04-19T10:08:11;101690.66;;;8.11;70.15
77450;BME280;66536;53.150;18.172;2023-04-19T10:10:38;101693.95;;;8.11;70.60
77450;BME280;66536;53.150;18.172;2023-04-19T10:13:10;101687.45;;;8.13;70.98
77450;BME280;66536;53.150;18.172;2023-04-19T10:15:37;101682.96;;;8.23;71.04
77450;BME280;66536;53.150;18.172;2023-04-19T10:18:04;101682.04;;;8.44;70.41
77450;BME280;66536;53.150;18.172;2023-04-19T10:20:37;101682.08;;;8.64;70.13
77450;BME280;66536;53.150;18.172;2023-04-19T10:23:06;101683.17;;;8.82;69.69
77450;BME280;66536;53.150;18.172;2023-04-19T10:25:36;101679.58;;;9.01;69.52
77450;BME280;66536;53.150;18.172;2023-04-19T10:28:03;101684.73;;;9.24;68.47
77450;BME280;66536;53.150;18.172;2023-04-19T10:30:29;101675.86;;;9.37;67.43
77450;BME280;66536;53.150;18.172;2023-04-19T10:32:58;101674.20;;;9.40;66.37
77450;BME280;66536;53.150;18.172;2023-04-19T10:35:26;101673.34;;;9.50;67.31
77450;BME280;66536;53.150;18.172;2023-04-19T10:38:06;101671.48;;;9.58;65.97
77450;BME280;66536;53.150;18.172;2023-04-19T10:43:23;101661.73;;;9.79;64.66
77450;BME280;66536;53.150;18.172;2023-04-19T10:45:50;101668.96;;;9.80;64.85
77450;BME280;66536;53.150;18.172;2023-04-19T10:48:30;101662.92;;;9.76;64.57
77450;BME280;66536;53.150;18.172;2023-04-19T10:51:02;101662.67;;;9.72;65.14
77450;BME280;66536;53.150;18.172;2023-04-19T10:53:47;101661.39;;;9.64;65.24
77450;BME280;66536;53.150;18.172;2023-04-19T10:56:15;101667.94;;;9.48;66.07
77450;BME280;66536;53.150;18.172;2023-04-19T10:59:10;101670.14;;;9.30;66.69
77450;BME280;66536;53.150;18.172;2023-04-19T11:01:49;101672.37;;;9.07;67.44
77450;BME280;66536;53.150;18.172;2023-04-19T11:04:19;101680.14;;;8.83;67.80
77450;BME280;66536;53.150;18.172;2023-04-19T11:06:59;101678.98;;;8.70;68.56
77450;BME280;66536;53.150;18.172;2023-04-19T11:09:28;101681.33;;;8.61;69.03
77450;BME280;66536;53.150;18.172;2023-04-19T11:11:58;101692.67;;;8.52;69.55
77450;BME280;66536;53.150;18.172;2023-04-19T11:14:26;101697.66;;;8.42;70.16
77450;BME280;66536;53.150;18.172;2023-04-19T11:16:55;101689.23;;;8.34;70.77
77450;BME280;66536;53.150;18.172;2023-04-19T11:19:21;101691.04;;;8.27;70.90
77450;BME280;66536;53.150;18.172;2023-04-19T11:21:48;101693.66;;;8.23;71.40
77450;BME280;66536;53.150;18.172;2023-04-19T11:24:15;101687.04;;;8.18;71.16
77450;BME280;66536;53.150;18.172;2023-04-19T11:26:44;101692.79;;;8.07;70.90
77450;BME280;66536;53.150;18.172;2023-04-19T11:29:11;101693.23;;;7.98;71.10
77450;BME280;66536;53.150;18.172;2023-04-19T11:31:38;101698.65;;;7.93;71.77
77450;BME280;66536;53.150;18.172;2023-04-19T11:34:05;101695.61;;;7.89;71.97
77450;BME280;66536;53.150;18.172;2023-04-19T11:36:31;101691.64;;;7.81;71.87
77450;BME280;66536;53.150;18.172;2023-04-19T11:38:57;101694.11;;;7.70;72.00
77450;BME280;66536;53.150;18.172;2023-04-19T11:41:24;101698.45;;;7.63;72.51
77450;BME280;66536;53.150;18.172;2023-04-19T11:43:50;101696.54;;;7.60;72.66
77450;BME280;66536;53.150;18.172;2023-04-19T11:46:16;101697.50;;;7.56;73.00
77450;BME280;66536;53.150;18.172;2023-04-19T11:48:51;101696.38;;;7.52;73.29
77450;BME280;66536;53.150;18.172;2023-04-19T11:51:18;101701.61;;;7.53;73.30
77450;BME280;66536;53.150;18.172;2023-04-19T11:53:44;101703.90;;;7.55;73.12
77450;BME280;66536;53.150;18.172;2023-04-19T11:56:10;101703.10;;;7.60;73.24
77450;BME280;66536;53.150;18.172;2023-04-19T11:58:40;101709.52;;;7.61;73.05
77450;BME280;66536;53.150;18.172;2023-04-19T12:01:11;101711.57;;;7.65;73.03
77450;BME280;66536;53.150;18.172;2023-04-19T12:03:51;101712.96;;;7.70;72.88
77450;BME280;66536;53.150;18.172;2023-04-19T12:06:21;101715.33;;;7.80;72.98
77450;BME280;66536;53.150;18.172;2023-04-19T12:08:49;101710.27;;;7.94;73.32
77450;BME280;66536;53.150;18.172;2023-04-19T12:11:17;101710.66;;;7.96;72.74
77450;BME280;66536;53.150;18.172;2023-04-19T12:13:44;101702.08;;;7.90;72.75
77450;BME280;66536;53.150;18.172;2023-04-19T12:16:10;101712.81;;;7.84;73.38
77450;BME280;66536;53.150;18.172;2023-04-19T12:18:47;101715.25;;;7.85;73.71
77450;BME280;66536;53.150;18.172;2023-04-19T12:21:28;101719.92;;;7.85;72.92
77450;BME280;66536;53.150;18.172;2023-04-19T12:23:57;101713.08;;;7.77;72.95
77450;BME280;66536;53.150;18.172;2023-04-19T12:26:26;101719.52;;;7.70;73.39
77450;BME280;66536;53.150;18.172;2023-04-19T12:28:54;101721.48;;;7.79;73.29
77450;BME280;66536;53.150;18.172;2023-04-19T12:31:20;101718.05;;;7.94;73.00
77450;BME280;66536;53.150;18.172;2023-04-19T12:33:47;101717.48;;;8.03;72.72
77450;BME280;66536;53.150;18.172;2023-04-19T12:36:13;101715.30;;;7.99;72.61
77450;BME280;66536;53.150;18.172;2023-04-19T12:38:42;101709.33;;;7.91;72.83
77450;BME280;66536;53.150;18.172;2023-04-19T12:41:08;101719.37;;;7.89;72.66
77450;BME280;66536;53.150;18.172;2023-04-19T12:43:35;101716.89;;;7.93;72.76
77450;BME280;66536;53.150;18.172;2023-04-19T12:46:01;101721.31;;;7.96;72.63
77450;BME280;66536;53.150;18.172;2023-04-19T12:48:27;101716.34;;;8.14;72.41
77450;BME280;66536;53.150;18.172;2023-04-19T12:50:54;101714.26;;;8.33;71.28
77450;BME280;66536;53.150;18.172;2023-04-19T12:53:21;101714.91;;;8.46;71.16
77450;BME280;66536;53.150;18.172;2023-04-19T12:55:49;101719.27;;;8.54;70.89
77450;BME280;66536;53.150;18.172;2023-04-19T12:58:17;101714.48;;;8.60;70.78
77450;BME280;66536;53.150;18.172;2023-04-19T13:00:43;101722.95;;;8.67;70.61
77450;BME280;66536;53.150;18.172;2023-04-19T13:03:13;101720.52;;;8.74;70.35